College Dale, Tennessee
Current Conditions -  °F | °C
As of 2:53 AM on Friday 31 Oct 2014 (Local Time) from KCHA Reporting Station
Clear Clear  
Wind Chill: 43°   Ceiling: Unl
Heat Index: 43°   Visibility: 10mi
Dew Point: 41°   Wind: 3mph
Humidity: 93%   Direction: 270°W
Pressure: 30.01"   Gusts: NA
Location:  35.1121°N, 85.0602°W
Report Text: KCHA 310653Z AUTO 27003KT 10SM CLR 06/05 A3001 RMK AO2 SLP161 T00610050
Loading
Personal Weather Stations






























Interactive Weather Map
Tropical Storm Tracking
New forecast layout! Learn more

10-Day Weather Forecast

Advertisements
Track Severe Weather on mobile